Viewpointe Walnut Grove Tower

*Note: All times are displayed in the local standard time of the station location.
**Rain - Equipment is designed to accurately record liquid precipitation; under conditions when precipitation is not in liquid form, the data displayed may not properly reflect rainfall values.

Date Max Temp
(°C)
Min Temp
(°C)
Avg Temp
(°C)
Rain (mm) Avg RH (%)
Tue, Jan 15, 2019 -2.0 -3.9 -2.8 0.0 85.5
Mon, Jan 14, 2019 -1.4 -8.9 -4.3 0.0 82.9
Sun, Jan 13, 2019 -0.1 -8.0 -4.0 0.0 77.3
Sat, Jan 12, 2019 -0.3 -4.8 -2.4 0.0 78.2
Fri, Jan 11, 2019 -1.8 -9.3 -5.2 0.0 75.6
Thu, Jan 10, 2019 -2.7 -8.5 -5.1 0.0 71.0
Wed, Jan 09, 2019 2.4 -4.6 -2.5 0.0 68.8
DateTime Avg Temp (°C) Rain (mm) RH (%)
Wed, Jan 16, 2019 06:00 -0.9 0.0 90.1
Wed, Jan 16, 2019 05:00 -1.1 0.0 89.1
Wed, Jan 16, 2019 04:00 -1.5 0.0 90.0
Wed, Jan 16, 2019 03:00 -2.0 0.0 87.2
Wed, Jan 16, 2019 02:00 -2.2 0.0 86.0
Wed, Jan 16, 2019 01:00 -2.2 0.0 86.7
Wed, Jan 16, 2019 00:00 -2.1 0.0 88.2
Tue, Jan 15, 2019 23:00 -2.2 0.0 86.3
Tue, Jan 15, 2019 22:00 -2.5 0.0 86.1
Tue, Jan 15, 2019 21:00 -2.6 0.0 85.5
Tue, Jan 15, 2019 20:00 -2.6 0.0 87.3
Tue, Jan 15, 2019 19:00 -2.6 0.0 85.7
Tue, Jan 15, 2019 18:00 -2.3 0.0 80.3
Tue, Jan 15, 2019 17:00 -2.2 0.0 82.9
Tue, Jan 15, 2019 16:00 -2.5 0.0 85.6
Tue, Jan 15, 2019 15:00 -2.8 0.0 86.5
Tue, Jan 15, 2019 14:00 -3.4 0.0 88.4
Tue, Jan 15, 2019 13:00 -3.8 0.0 90.7
Tue, Jan 15, 2019 12:00 -3.7 0.0 89.5
Tue, Jan 15, 2019 11:00 -3.6 0.0 90.3
Tue, Jan 15, 2019 10:00 -3.3 0.0 89.5
Tue, Jan 15, 2019 09:00 -3.2 0.0 90.0
Tue, Jan 15, 2019 08:00 -3.1 0.0 90.5
Tue, Jan 15, 2019 07:00 -2.6 0.0 88.2
Tue, Jan 15, 2019 06:00 -2.4 0.0 86.4
Tue, Jan 15, 2019 05:00 -2.4 0.0 79.4
Tue, Jan 15, 2019 04:00 -2.4 0.0 75.3
Tue, Jan 15, 2019 03:00 -2.6 0.0 78.6
Tue, Jan 15, 2019 02:00 -2.8 0.0 81.1
Tue, Jan 15, 2019 01:00 -2.6 0.0 80.0
Tue, Jan 15, 2019 00:00 -2.8 0.0 80.4
Mon, Jan 14, 2019 23:00 -3.3 0.0 81.1
Mon, Jan 14, 2019 22:00 -2.9 0.0 80.2
Mon, Jan 14, 2019 21:00 -2.7 0.0 83.2
Mon, Jan 14, 2019 20:00 -2.5 0.0 83.5
Mon, Jan 14, 2019 19:00 -2.5 0.0 81.5
Mon, Jan 14, 2019 18:00 -2.7 0.0 79.9
Mon, Jan 14, 2019 17:00 -1.9 0.0 74.3
Mon, Jan 14, 2019 16:00 -1.5 0.0 68.4
Mon, Jan 14, 2019 15:00 -1.8 0.0 70.4
Mon, Jan 14, 2019 14:00 -2.2 0.0 73.0
Mon, Jan 14, 2019 13:00 -2.4 0.0 71.1
Mon, Jan 14, 2019 12:00 -3.0 0.0 75.0
Mon, Jan 14, 2019 11:00 -3.9 0.0 78.7
Mon, Jan 14, 2019 10:00 -5.4 0.0 85.9
Mon, Jan 14, 2019 09:00 -8.2 0.0 94.0
Mon, Jan 14, 2019 08:00 -7.5 0.0 92.0
Mon, Jan 14, 2019 07:00 -6.2 0.0 90.8


asterix Register now to access more data! asterix